sensor_id;sensor_type;location;lat;lon;timestamp;temperature;humidity
27619;DHT22;15039;50.830;4.730;2023-06-26T00:00:03;24.20;99.90
27619;DHT22;15039;50.830;4.730;2023-06-26T00:02:30;24.10;99.90
27619;DHT22;15039;50.830;4.730;2023-06-26T00:04:58;24.10;99.90
27619;DHT22;15039;50.830;4.730;2023-06-26T00:07:24;24.00;99.90
27619;DHT22;15039;50.830;4.730;2023-06-26T00:09:50;23.90;99.90
27619;DHT22;15039;50.830;4.730;2023-06-26T00:12:16;23.90;99.90
27619;DHT22;15039;50.830;4.730;2023-06-26T00:14:42;23.80;99.90
27619;DHT22;15039;50.830;4.730;2023-06-26T00:17:07;23.80;99.90
27619;DHT22;15039;50.830;4.730;2023-06-26T00:19:33;23.80;99.90
27619;DHT22;15039;50.830;4.730;2023-06-26T00:21:58;23.70;99.90
27619;DHT22;15039;50.830;4.730;2023-06-26T00:24:24;23.60;99.90
27619;DHT22;15039;50.830;4.730;2023-06-26T00:26:49;23.60;99.90
27619;DHT22;15039;50.830;4.730;2023-06-26T00:29:16;23.50;99.90
27619;DHT22;15039;50.830;4.730;2023-06-26T00:31:41;23.40;99.90
27619;DHT22;15039;50.830;4.730;2023-06-26T00:34:07;23.50;99.90
27619;DHT22;15039;50.830;4.730;2023-06-26T00:36:33;23.40;99.90
27619;DHT22;15039;50.830;4.730;2023-06-26T00:38:59;23.30;99.90
27619;DHT22;15039;50.830;4.730;2023-06-26T00:41:24;23.20;99.90
27619;DHT22;15039;50.830;4.730;2023-06-26T00:43:50;23.10;99.90
27619;DHT22;15039;50.830;4.730;2023-06-26T00:46:17;23.00;99.90
27619;DHT22;15039;50.830;4.730;2023-06-26T00:48:44;22.90;99.90
27619;DHT22;15039;50.830;4.730;2023-06-26T00:51:10;22.80;99.90
27619;DHT22;15039;50.830;4.730;2023-06-26T00:53:35;22.80;99.90
27619;DHT22;15039;50.830;4.730;2023-06-26T00:56:02;22.70;99.90
27619;DHT22;15039;50.830;4.730;2023-06-26T00:58:28;22.70;99.90
27619;DHT22;15039;50.830;4.730;2023-06-26T01:00:54;22.60;99.90
27619;DHT22;15039;50.830;4.730;2023-06-26T01:03:22;22.50;99.90
27619;DHT22;15039;50.830;4.730;2023-06-26T01:05:48;22.40;99.90
27619;DHT22;15039;50.830;4.730;2023-06-26T01:08:16;22.40;99.90
27619;DHT22;15039;50.830;4.730;2023-06-26T01:10:42;22.20;99.90
27619;DHT22;15039;50.830;4.730;2023-06-26T01:13:08;22.10;99.90
27619;DHT22;15039;50.830;4.730;2023-06-26T01:15:34;22.10;99.90
27619;DHT22;15039;50.830;4.730;2023-06-26T01:18:00;22.00;99.90
27619;DHT22;15039;50.830;4.730;2023-06-26T01:20:36;21.90;99.90
27619;DHT22;15039;50.830;4.730;2023-06-26T01:23:20;21.90;99.90
27619;DHT22;15039;50.830;4.730;2023-06-26T01:26:22;21.70;99.90
27619;DHT22;15039;50.830;4.730;2023-06-26T01:28:50;21.50;99.90
27619;DHT22;15039;50.830;4.730;2023-06-26T01:31:17;21.40;99.90
27619;DHT22;15039;50.830;4.730;2023-06-26T01:33:43;21.50;99.90
27619;DHT22;15039;50.830;4.730;2023-06-26T01:36:10;21.50;99.90
27619;DHT22;15039;50.830;4.730;2023-06-26T01:38:36;21.40;99.90
27619;DHT22;15039;50.830;4.730;2023-06-26T01:41:02;21.40;99.90
27619;DHT22;15039;50.830;4.730;2023-06-26T01:46:25;21.30;99.90
27619;DHT22;15039;50.830;4.730;2023-06-26T01:49:03;21.30;99.90
27619;DHT22;15039;50.830;4.730;2023-06-26T01:52:02;21.30;99.90
27619;DHT22;15039;50.830;4.730;2023-06-26T01:54:30;21.30;99.90
27619;DHT22;15039;50.830;4.730;2023-06-26T01:56:59;21.20;99.90
27619;DHT22;15039;50.830;4.730;2023-06-26T01:59:26;21.10;99.90
27619;DHT22;15039;50.830;4.730;2023-06-26T02:01:54;21.10;99.90
27619;DHT22;15039;50.830;4.730;2023-06-26T02:04:20;21.10;99.90
27619;DHT22;15039;50.830;4.730;2023-06-26T02:06:45;21.10;99.90
27619;DHT22;15039;50.830;4.730;2023-06-26T02:09:11;21.00;99.90
27619;DHT22;15039;50.830;4.730;2023-06-26T02:11:36;20.90;99.90
27619;DHT22;15039;50.830;4.730;2023-06-26T02:14:02;20.90;99.90
27619;DHT22;15039;50.830;4.730;2023-06-26T02:16:28;20.80;99.90
27619;DHT22;15039;50.830;4.730;2023-06-26T02:18:54;20.70;99.90
27619;DHT22;15039;50.830;4.730;2023-06-26T02:21:20;20.80;99.90
27619;DHT22;15039;50.830;4.730;2023-06-26T02:23:46;20.80;99.90
27619;DHT22;15039;50.830;4.730;2023-06-26T02:26:11;20.80;99.90
27619;DHT22;15039;50.830;4.730;2023-06-26T02:28:37;20.80;99.90
27619;DHT22;15039;50.830;4.730;2023-06-26T02:31:02;20.80;99.90
27619;DHT22;15039;50.830;4.730;2023-06-26T02:33:28;20.70;99.90
27619;DHT22;15039;50.830;4.730;2023-06-26T02:35:54;20.60;99.90
27619;DHT22;15039;50.830;4.730;2023-06-26T02:38:19;20.50;99.90
27619;DHT22;15039;50.830;4.730;2023-06-26T02:40:45;20.50;99.90
27619;DHT22;15039;50.830;4.730;2023-06-26T02:43:10;20.50;99.90
27619;DHT22;15039;50.830;4.730;2023-06-26T02:45:36;20.60;99.90
27619;DHT22;15039;50.830;4.730;2023-06-26T02:48:01;20.50;99.90
27619;DHT22;15039;50.830;4.730;2023-06-26T02:50:27;20.50;99.90
27619;DHT22;15039;50.830;4.730;2023-06-26T02:52:53;20.40;99.90
27619;DHT22;15039;50.830;4.730;2023-06-26T02:55:19;20.30;99.90
27619;DHT22;15039;50.830;4.730;2023-06-26T02:57:46;20.30;99.90
27619;DHT22;15039;50.830;4.730;2023-06-26T03:00:12;20.10;99.90
27619;DHT22;15039;50.830;4.730;2023-06-26T03:02:38;20.20;99.90
27619;DHT22;15039;50.830;4.730;2023-06-26T03:05:04;20.20;99.90
27619;DHT22;15039;50.830;4.730;2023-06-26T03:07:30;20.10;99.90
27619;DHT22;15039;50.830;4.730;2023-06-26T03:09:56;20.00;99.90
27619;DHT22;15039;50.830;4.730;2023-06-26T03:12:21;20.10;99.90
27619;DHT22;15039;50.830;4.730;2023-06-26T03:14:47;20.00;99.90
27619;DHT22;15039;50.830;4.730;2023-06-26T03:17:12;20.00;99.90
27619;DHT22;15039;50.830;4.730;2023-06-26T03:19:38;20.00;99.90
27619;DHT22;15039;50.830;4.730;2023-06-26T03:22:04;19.90;99.90
27619;DHT22;15039;50.830;4.730;2023-06-26T03:24:30;19.90;99.90
27619;DHT22;15039;50.830;4.730;2023-06-26T03:26:55;19.80;99.90
27619;DHT22;15039;50.830;4.730;2023-06-26T03:29:21;19.80;99.90
27619;DHT22;15039;50.830;4.730;2023-06-26T03:31:46;19.80;99.90
27619;DHT22;15039;50.830;4.730;2023-06-26T03:34:12;19.80;99.90
27619;DHT22;15039;50.830;4.730;2023-06-26T03:36:38;19.80;99.90
27619;DHT22;15039;50.830;4.730;2023-06-26T03:39:03;19.60;99.90
27619;DHT22;15039;50.830;4.730;2023-06-26T03:41:29;19.60;99.90
27619;DHT22;15039;50.830;4.730;2023-06-26T03:43:55;19.60;99.90
27619;DHT22;15039;50.830;4.730;2023-06-26T03:46:22;19.50;99.90
27619;DHT22;15039;50.830;4.730;2023-06-26T03:48:48;19.50;99.90
27619;DHT22;15039;50.830;4.730;2023-06-26T03:51:14;19.40;99.90
27619;DHT22;15039;50.830;4.730;2023-06-26T03:53:40;19.40;99.90
27619;DHT22;15039;50.830;4.730;2023-06-26T03:56:05;19.40;99.90
27619;DHT22;15039;50.830;4.730;2023-06-26T03:58:31;19.30;99.90
27619;DHT22;15039;50.830;4.730;2023-06-26T04:00:56;19.30;99.90
27619;DHT22;15039;50.830;4.730;2023-06-26T04:03:23;19.30;99.90
27619;DHT22;15039;50.830;4.730;2023-06-26T04:05:49;19.30;99.90
27619;DHT22;15039;50.830;4.730;2023-06-26T04:08:14;19.30;99.90
27619;DHT22;15039;50.830;4.730;2023-06-26T04:10:40;19.30;99.90
27619;DHT22;15039;50.830;4.730;2023-06-26T04:13:05;19.30;99.90
27619;DHT22;15039;50.830;4.730;2023-06-26T04:15:31;19.30;99.90
27619;DHT22;15039;50.830;4.730;2023-06-26T04:17:57;19.30;99.90
27619;DHT22;15039;50.830;4.730;2023-06-26T04:20:22;19.30;99.90
27619;DHT22;15039;50.830;4.730;2023-06-26T04:22:48;19.30;99.90
27619;DHT22;15039;50.830;4.730;2023-06-26T04:25:14;19.30;99.90
27619;DHT22;15039;50.830;4.730;2023-06-26T04:27:39;19.30;99.90
27619;DHT22;15039;50.830;4.730;2023-06-26T04:30:06;19.30;99.90
27619;DHT22;15039;50.830;4.730;2023-06-26T04:32:31;19.30;99.90
27619;DHT22;15039;50.830;4.730;2023-06-26T04:34:57;19.40;99.90
27619;DHT22;15039;50.830;4.730;2023-06-26T04:37:22;19.30;99.90
27619;DHT22;15039;50.830;4.730;2023-06-26T04:39:50;19.20;99.90
27619;DHT22;15039;50.830;4.730;2023-06-26T04:42:15;19.20;99.90
27619;DHT22;15039;50.830;4.730;2023-06-26T04:44:41;19.30;99.90
27619;DHT22;15039;50.830;4.730;2023-06-26T04:47:07;19.30;99.90
27619;DHT22;15039;50.830;4.730;2023-06-26T04:49:33;19.30;99.90
27619;DHT22;15039;50.830;4.730;2023-06-26T04:51:59;19.30;99.90
27619;DHT22;15039;50.830;4.730;2023-06-26T04:54:25;19.20;99.90
27619;DHT22;15039;50.830;4.730;2023-06-26T04:56:51;19.30;99.90
27619;DHT22;15039;50.830;4.730;2023-06-26T04:59:17;19.30;99.90
27619;DHT22;15039;50.830;4.730;2023-06-26T05:01:42;19.30;99.90
27619;DHT22;15039;50.830;4.730;2023-06-26T05:04:14;19.30;99.90
27619;DHT22;15039;50.830;4.730;2023-06-26T05:06:40;19.30;99.90
27619;DHT22;15039;50.830;4.730;2023-06-26T05:09:06;19.40;99.90
27619;DHT22;15039;50.830;4.730;2023-06-26T05:11:31;19.30;99.90
27619;DHT22;15039;50.830;4.730;2023-06-26T05:13:57;19.30;99.90
27619;DHT22;15039;50.830;4.730;2023-06-26T05:16:22;19.40;99.90
27619;DHT22;15039;50.830;4.730;2023-06-26T05:18:48;19.40;99.90
27619;DHT22;15039;50.830;4.730;2023-06-26T05:21:15;19.50;99.90
27619;DHT22;15039;50.830;4.730;2023-06-26T05:23:41;19.50;99.90
27619;DHT22;15039;50.830;4.730;2023-06-26T05:26:09;19.60;99.90
27619;DHT22;15039;50.830;4.730;2023-06-26T05:28:36;19.60;99.90
27619;DHT22;15039;50.830;4.730;2023-06-26T05:31:03;19.60;99.90
27619;DHT22;15039;50.830;4.730;2023-06-26T05:33:30;19.60;99.90
27619;DHT22;15039;50.830;4.730;2023-06-26T05:35:56;19.50;99.90
27619;DHT22;15039;50.830;4.730;2023-06-26T05:38:24;19.50;99.90
27619;DHT22;15039;50.830;4.730;2023-06-26T05:40:50;19.70;99.90
27619;DHT22;15039;50.830;4.730;2023-06-26T05:43:16;19.70;99.90
27619;DHT22;15039;50.830;4.730;2023-06-26T05:45:46;19.70;99.90
27619;DHT22;15039;50.830;4.730;2023-06-26T05:48:12;19.70;99.90
27619;DHT22;15039;50.830;4.730;2023-06-26T05:50:38;19.70;99.90
27619;DHT22;15039;50.830;4.730;2023-06-26T05:53:06;19.70;99.90
27619;DHT22;15039;50.830;4.730;2023-06-26T05:55:32;19.80;99.90
27619;DHT22;15039;50.830;4.730;2023-06-26T05:58:00;19.90;99.90
27619;DHT22;15039;50.830;4.730;2023-06-26T06:00:27;19.80;99.90
27619;DHT22;15039;50.830;4.730;2023-06-26T06:02:53;19.90;99.90
27619;DHT22;15039;50.830;4.730;2023-06-26T06:05:21;20.20;99.90
27619;DHT22;15039;50.830;4.730;2023-06-26T06:07:47;20.50;99.90
27619;DHT22;15039;50.830;4.730;2023-06-26T06:10:12;20.70;99.90
27619;DHT22;15039;50.830;4.730;2023-06-26T06:12:38;21.00;99.90
27619;DHT22;15039;50.830;4.730;2023-06-26T06:15:05;21.20;99.90
27619;DHT22;15039;50.830;4.730;2023-06-26T06:17:30;21.30;99.90
27619;DHT22;15039;50.830;4.730;2023-06-26T06:19:56;21.30;99.90
27619;DHT22;15039;50.830;4.730;2023-06-26T06:22:22;21.20;99.90
27619;DHT22;15039;50.830;4.730;2023-06-26T06:24:50;21.20;99.90
27619;DHT22;15039;50.830;4.730;2023-06-26T06:27:16;21.30;99.90
27619;DHT22;15039;50.830;4.730;2023-06-26T06:29:41;21.70;99.90
27619;DHT22;15039;50.830;4.730;2023-06-26T06:32:07;21.90;99.90
27619;DHT22;15039;50.830;4.730;2023-06-26T06:34:33;21.90;99.90
27619;DHT22;15039;50.830;4.730;2023-06-26T06:36:59;22.00;99.90
27619;DHT22;15039;50.830;4.730;2023-06-26T06:39:24;21.90;99.90
27619;DHT22;15039;50.830;4.730;2023-06-26T06:41:50;21.90;99.90
27619;DHT22;15039;50.830;4.730;2023-06-26T06:44:16;21.60;99.90
27619;DHT22;15039;50.830;4.730;2023-06-26T06:46:41;21.70;99.90
27619;DHT22;15039;50.830;4.730;2023-06-26T06:49:08;21.70;99.90
27619;DHT22;15039;50.830;4.730;2023-06-26T06:51:34;21.90;99.90
27619;DHT22;15039;50.830;4.730;2023-06-26T06:54:00;21.60;99.90
27619;DHT22;15039;50.830;4.730;2023-06-26T06:56:26;21.40;99.90
27619;DHT22;15039;50.830;4.730;2023-06-26T06:58:52;21.20;99.90
27619;DHT22;15039;50.830;4.730;2023-06-26T07:01:17;21.10;99.90
27619;DHT22;15039;50.830;4.730;2023-06-26T07:03:43;21.00;99.90
27619;DHT22;15039;50.830;4.730;2023-06-26T07:06:09;20.90;99.90
27619;DHT22;15039;50.830;4.730;2023-06-26T07:08:36;20.70;99.90
27619;DHT22;15039;50.830;4.730;2023-06-26T07:11:01;20.70;99.90
27619;DHT22;15039;50.830;4.730;2023-06-26T07:13:28;20.80;99.90
27619;DHT22;15039;50.830;4.730;2023-06-26T07:15:54;20.80;99.90
27619;DHT22;15039;50.830;4.730;2023-06-26T07:18:19;20.90;99.90
27619;DHT22;15039;50.830;4.730;2023-06-26T07:20:45;21.00;99.90
27619;DHT22;15039;50.830;4.730;2023-06-26T07:23:10;20.90;99.90
27619;DHT22;15039;50.830;4.730;2023-06-26T07:25:36;21.00;99.90
27619;DHT22;15039;50.830;4.730;2023-06-26T07:28:02;21.00;99.90
27619;DHT22;15039;50.830;4.730;2023-06-26T07:30:28;20.80;99.90
27619;DHT22;15039;50.830;4.730;2023-06-26T07:32:54;20.70;99.90
27619;DHT22;15039;50.830;4.730;2023-06-26T07:35:19;20.60;99.90
27619;DHT22;15039;50.830;4.730;2023-06-26T07:37:45;20.80;99.90
27619;DHT22;15039;50.830;4.730;2023-06-26T07:40:11;20.80;99.90
27619;DHT22;15039;50.830;4.730;2023-06-26T07:42:37;20.70;99.90
27619;DHT22;15039;50.830;4.730;2023-06-26T07:45:03;20.60;99.90
27619;DHT22;15039;50.830;4.730;2023-06-26T07:47:35;20.60;99.90
27619;DHT22;15039;50.830;4.730;2023-06-26T07:50:01;20.70;99.90
27619;DHT22;15039;50.830;4.730;2023-06-26T07:52:27;20.80;99.90
27619;DHT22;15039;50.830;4.730;2023-06-26T07:54:54;20.90;99.90
27619;DHT22;15039;50.830;4.730;2023-06-26T07:57:20;21.00;99.90
27619;DHT22;15039;50.830;4.730;2023-06-26T07:59:45;21.10;99.90
27619;DHT22;15039;50.830;4.730;2023-06-26T08:02:11;21.10;99.90
27619;DHT22;15039;50.830;4.730;2023-06-26T08:04:36;21.10;99.90
27619;DHT22;15039;50.830;4.730;2023-06-26T08:07:02;21.20;99.90
27619;DHT22;15039;50.830;4.730;2023-06-26T08:09:29;21.20;99.90
27619;DHT22;15039;50.830;4.730;2023-06-26T08:11:56;21.40;99.90
27619;DHT22;15039;50.830;4.730;2023-06-26T08:14:22;21.40;99.90
27619;DHT22;15039;50.830;4.730;2023-06-26T08:16:48;21.60;99.90
27619;DHT22;15039;50.830;4.730;2023-06-26T08:19:14;21.50;99.90
27619;DHT22;15039;50.830;4.730;2023-06-26T08:21:41;21.60;99.90
27619;DHT22;15039;50.830;4.730;2023-06-26T08:24:07;21.70;99.90
27619;DHT22;15039;50.830;4.730;2023-06-26T08:26:33;21.80;99.90
27619;DHT22;15039;50.830;4.730;2023-06-26T08:28:59;21.80;99.90
27619;DHT22;15039;50.830;4.730;2023-06-26T08:31:24;21.80;99.90
27619;DHT22;15039;50.830;4.730;2023-06-26T08:33:50;21.80;99.90
27619;DHT22;15039;50.830;4.730;2023-06-26T08:36:16;22.00;99.90
27619;DHT22;15039;50.830;4.730;2023-06-26T08:38:41;22.10;99.90
27619;DHT22;15039;50.830;4.730;2023-06-26T08:41:07;22.10;99.90
27619;DHT22;15039;50.830;4.730;2023-06-26T08:43:33;22.10;99.90
27619;DHT22;15039;50.830;4.730;2023-06-26T08:46:00;22.10;99.90
27619;DHT22;15039;50.830;4.730;2023-06-26T08:48:25;22.20;99.90
27619;DHT22;15039;50.830;4.730;2023-06-26T08:50:55;22.50;99.90
27619;DHT22;15039;50.830;4.730;2023-06-26T08:53:57;22.70;99.90
27619;DHT22;15039;50.830;4.730;2023-06-26T08:56:25;22.60;99.90
27619;DHT22;15039;50.830;4.730;2023-06-26T08:58:52;22.60;99.90
27619;DHT22;15039;50.830;4.730;2023-06-26T09:01:18;22.70;99.90
27619;DHT22;15039;50.830;4.730;2023-06-26T09:03:45;22.90;99.90
27619;DHT22;15039;50.830;4.730;2023-06-26T09:06:11;22.80;99.90
27619;DHT22;15039;50.830;4.730;2023-06-26T09:08:36;22.90;99.90
27619;DHT22;15039;50.830;4.730;2023-06-26T09:11:02;22.90;99.90
27619;DHT22;15039;50.830;4.730;2023-06-26T09:13:31;22.70;99.90
27619;DHT22;15039;50.830;4.730;2023-06-26T09:15:57;22.50;99.90
27619;DHT22;15039;50.830;4.730;2023-06-26T09:18:23;22.60;99.90
27619;DHT22;15039;50.830;4.730;2023-06-26T09:20:50;22.80;99.90
27619;DHT22;15039;50.830;4.730;2023-06-26T09:23:16;22.90;99.90
27619;DHT22;15039;50.830;4.730;2023-06-26T09:25:42;23.00;99.90
27619;DHT22;15039;50.830;4.730;2023-06-26T09:28:08;23.20;99.90
27619;DHT22;15039;50.830;4.730;2023-06-26T09:30:35;23.20;99.90
27619;DHT22;15039;50.830;4.730;2023-06-26T09:33:18;23.00;99.90
27619;DHT22;15039;50.830;4.730;2023-06-26T09:35:45;23.20;99.90
27619;DHT22;15039;50.830;4.730;2023-06-26T09:38:12;23.20;99.90
27619;DHT22;15039;50.830;4.730;2023-06-26T09:40:38;23.20;99.90
27619;DHT22;15039;50.830;4.730;2023-06-26T09:43:05;23.00;99.90
27619;DHT22;15039;50.830;4.730;2023-06-26T09:45:35;23.00;99.90
27619;DHT22;15039;50.830;4.730;2023-06-26T09:48:04;22.80;99.00
27619;DHT22;15039;50.830;4.730;2023-06-26T09:50:33;22.60;99.50
27619;DHT22;15039;50.830;4.730;2023-06-26T09:53:15;22.50;99.90
27619;DHT22;15039;50.830;4.730;2023-06-26T09:55:43;22.70;99.90
27619;DHT22;15039;50.830;4.730;2023-06-26T09:58:16;22.90;99.90
27619;DHT22;15039;50.830;4.730;2023-06-26T10:00:44;22.90;99.90
27619;DHT22;15039;50.830;4.730;2023-06-26T10:03:10;23.00;99.90
27619;DHT22;15039;50.830;4.730;2023-06-26T10:05:38;22.90;99.40
27619;DHT22;15039;50.830;4.730;2023-06-26T10:08:04;22.90;98.70
27619;DHT22;15039;50.830;4.730;2023-06-26T10:10:36;22.90;97.30
27619;DHT22;15039;50.830;4.730;2023-06-26T10:13:10;22.80;97.70
27619;DHT22;15039;50.830;4.730;2023-06-26T10:15:37;22.80;98.10
27619;DHT22;15039;50.830;4.730;2023-06-26T10:18:03;22.90;98.60
27619;DHT22;15039;50.830;4.730;2023-06-26T10:20:30;23.10;99.20
27619;DHT22;15039;50.830;4.730;2023-06-26T10:22:57;23.20;98.90
27619;DHT22;15039;50.830;4.730;2023-06-26T10:25:26;23.10;98.80
27619;DHT22;15039;50.830;4.730;2023-06-26T10:27:57;23.10;99.20
27619;DHT22;15039;50.830;4.730;2023-06-26T10:30:31;23.10;99.60
27619;DHT22;15039;50.830;4.730;2023-06-26T10:32:57;23.50;99.80
27619;DHT22;15039;50.830;4.730;2023-06-26T10:35:25;23.40;99.60
27619;DHT22;15039;50.830;4.730;2023-06-26T10:37:51;23.40;99.90
27619;DHT22;15039;50.830;4.730;2023-06-26T10:40:28;23.40;99.70
27619;DHT22;15039;50.830;4.730;2023-06-26T10:43:07;23.20;99.30
27619;DHT22;15039;50.830;4.730;2023-06-26T10:45:36;23.00;99.40
27619;DHT22;15039;50.830;4.730;2023-06-26T10:48:02;22.90;99.30
27619;DHT22;15039;50.830;4.730;2023-06-26T10:50:31;23.00;99.90
27619;DHT22;15039;50.830;4.730;2023-06-26T11:01:17;23.10;99.00
27619;DHT22;15039;50.830;4.730;2023-06-26T11:04:04;23.40;98.10
27619;DHT22;15039;50.830;4.730;2023-06-26T11:06:30;23.60;97.60
27619;DHT22;15039;50.830;4.730;2023-06-26T11:09:06;23.60;97.00
27619;DHT22;15039;50.830;4.730;2023-06-26T11:14:18;23.30;97.60
27619;DHT22;15039;50.830;4.730;2023-06-26T11:16:44;23.50;97.80
27619;DHT22;15039;50.830;4.730;2023-06-26T11:19:10;23.50;97.10
27619;DHT22;15039;50.830;4.730;2023-06-26T11:21:39;23.60;97.60
27619;DHT22;15039;50.830;4.730;2023-06-26T11:24:09;23.70;97.00
27619;DHT22;15039;50.830;4.730;2023-06-26T11:26:42;23.80;97.60
27619;DHT22;15039;50.830;4.730;2023-06-26T11:29:09;24.00;97.40
27619;DHT22;15039;50.830;4.730;2023-06-26T11:31:39;23.80;96.20
27619;DHT22;15039;50.830;4.730;2023-06-26T11:34:10;23.70;95.90
27619;DHT22;15039;50.830;4.730;2023-06-26T11:36:41;23.70;95.80
27619;DHT22;15039;50.830;4.730;2023-06-26T11:39:08;24.00;96.20
27619;DHT22;15039;50.830;4.730;2023-06-26T11:41:35;23.90;95.80
27619;DHT22;15039;50.830;4.730;2023-06-26T11:46:27;23.90;96.00
27619;DHT22;15039;50.830;4.730;2023-06-26T11:48:53;23.90;96.20
27619;DHT22;15039;50.830;4.730;2023-06-26T11:51:20;24.00;95.40
27619;DHT22;15039;50.830;4.730;2023-06-26T11:53:47;23.90;95.80
27619;DHT22;15039;50.830;4.730;2023-06-26T11:56:16;24.00;95.90
27619;DHT22;15039;50.830;4.730;2023-06-26T11:58:56;24.10;95.70
27619;DHT22;15039;50.830;4.730;2023-06-26T12:01:22;24.10;95.80
27619;DHT22;15039;50.830;4.730;2023-06-26T12:03:49;24.20;95.70
27619;DHT22;15039;50.830;4.730;2023-06-26T12:06:15;24.40;95.30
27619;DHT22;15039;50.830;4.730;2023-06-26T12:08:41;24.60;95.20
27619;DHT22;15039;50.830;4.730;2023-06-26T12:11:07;25.10;95.90
27619;DHT22;15039;50.830;4.730;2023-06-26T12:13:33;25.10;95.70
27619;DHT22;15039;50.830;4.730;2023-06-26T12:15:59;24.90;95.50
27619;DHT22;15039;50.830;4.730;2023-06-26T12:18:25;24.90;95.50
27619;DHT22;15039;50.830;4.730;2023-06-26T12:20:52;24.80;95.20
27619;DHT22;15039;50.830;4.730;2023-06-26T12:23:19;24.70;95.70
27619;DHT22;15039;50.830;4.730;2023-06-26T12:25:44;24.80;94.80
27619;DHT22;15039;50.830;4.730;2023-06-26T12:28:16;24.90;94.70
27619;DHT22;15039;50.830;4.730;2023-06-26T12:30:46;25.10;94.80
27619;DHT22;15039;50.830;4.730;2023-06-26T12:33:15;25.40;95.40
27619;DHT22;15039;50.830;4.730;2023-06-26T12:35:41;25.60;94.80
27619;DHT22;15039;50.830;4.730;2023-06-26T12:38:08;25.70;94.00
27619;DHT22;15039;50.830;4.730;2023-06-26T12:40:45;25.70;93.40
27619;DHT22;15039;50.830;4.730;2023-06-26T12:43:22;25.40;92.50
27619;DHT22;15039;50.830;4.730;2023-06-26T12:45:47;25.20;93.00
27619;DHT22;15039;50.830;4.730;2023-06-26T12:48:14;25.00;93.10
27619;DHT22;15039;50.830;4.730;2023-06-26T12:50:46;25.10;93.20
27619;DHT22;15039;50.830;4.730;2023-06-26T12:53:12;24.80;93.60
27619;DHT22;15039;50.830;4.730;2023-06-26T12:55:37;24.40;94.20
27619;DHT22;15039;50.830;4.730;2023-06-26T12:58:03;24.30;94.70
27619;DHT22;15039;50.830;4.730;2023-06-26T13:00:28;24.00;94.40
27619;DHT22;15039;50.830;4.730;2023-06-26T13:02:55;23.90;94.60
27619;DHT22;15039;50.830;4.730;2023-06-26T13:05:21;23.90;94.40
27619;DHT22;15039;50.830;4.730;2023-06-26T13:07:47;24.00;94.20
27619;DHT22;15039;50.830;4.730;2023-06-26T13:10:13;24.00;94.10
27619;DHT22;15039;50.830;4.730;2023-06-26T13:12:38;24.20;93.70
27619;DHT22;15039;50.830;4.730;2023-06-26T13:15:04;24.40;93.70
27619;DHT22;15039;50.830;4.730;2023-06-26T13:17:31;24.50;93.30
27619;DHT22;15039;50.830;4.730;2023-06-26T13:19:57;24.50;92.80
27619;DHT22;15039;50.830;4.730;2023-06-26T13:22:22;24.40;92.90
27619;DHT22;15039;50.830;4.730;2023-06-26T13:24:49;24.60;92.80
27619;DHT22;15039;50.830;4.730;2023-06-26T13:27:14;24.70;92.90
27619;DHT22;15039;50.830;4.730;2023-06-26T13:29:41;24.60;92.90
27619;DHT22;15039;50.830;4.730;2023-06-26T13:32:07;24.30;93.20
27619;DHT22;15039;50.830;4.730;2023-06-26T13:34:33;24.10;93.00
27619;DHT22;15039;50.830;4.730;2023-06-26T13:36:59;24.00;93.60
27619;DHT22;15039;50.830;4.730;2023-06-26T13:39:25;24.00;94.10
27619;DHT22;15039;50.830;4.730;2023-06-26T13:41:51;24.30;94.10
27619;DHT22;15039;50.830;4.730;2023-06-26T13:44:16;24.40;93.80
27619;DHT22;15039;50.830;4.730;2023-06-26T13:46:42;24.40;93.30
27619;DHT22;15039;50.830;4.730;2023-06-26T13:49:08;24.40;93.60
27619;DHT22;15039;50.830;4.730;2023-06-26T13:51:34;24.40;93.80
27619;DHT22;15039;50.830;4.730;2023-06-26T13:54:00;24.50;93.40
27619;DHT22;15039;50.830;4.730;2023-06-26T13:56:26;24.50;92.90
27619;DHT22;15039;50.830;4.730;2023-06-26T13:58:51;24.60;92.80
27619;DHT22;15039;50.830;4.730;2023-06-26T14:01:17;24.80;92.80
27619;DHT22;15039;50.830;4.730;2023-06-26T14:03:43;25.00;93.20
27619;DHT22;15039;50.830;4.730;2023-06-26T14:06:08;25.30;92.40
27619;DHT22;15039;50.830;4.730;2023-06-26T14:08:34;25.50;92.90
27619;DHT22;15039;50.830;4.730;2023-06-26T14:10:59;25.50;92.80
27619;DHT22;15039;50.830;4.730;2023-06-26T14:13:26;25.60;92.80
27619;DHT22;15039;50.830;4.730;2023-06-26T14:15:52;25.70;93.10
27619;DHT22;15039;50.830;4.730;2023-06-26T14:18:18;25.60;92.10
27619;DHT22;15039;50.830;4.730;2023-06-26T14:20:44;25.50;93.00
27619;DHT22;15039;50.830;4.730;2023-06-26T14:23:10;25.60;92.70
27619;DHT22;15039;50.830;4.730;2023-06-26T14:25:35;25.50;92.30
27619;DHT22;15039;50.830;4.730;2023-06-26T14:28:03;25.30;92.60
27619;DHT22;15039;50.830;4.730;2023-06-26T14:30:28;25.10;92.40
27619;DHT22;15039;50.830;4.730;2023-06-26T14:32:54;25.00;92.80
27619;DHT22;15039;50.830;4.730;2023-06-26T14:35:21;25.00;93.40
27619;DHT22;15039;50.830;4.730;2023-06-26T14:37:48;24.90;92.80
27619;DHT22;15039;50.830;4.730;2023-06-26T14:40:14;24.70;93.10
27619;DHT22;15039;50.830;4.730;2023-06-26T14:42:39;24.80;93.50
27619;DHT22;15039;50.830;4.730;2023-06-26T14:45:06;24.90;93.10
27619;DHT22;15039;50.830;4.730;2023-06-26T14:47:31;24.80;92.70
27619;DHT22;15039;50.830;4.730;2023-06-26T14:49:57;24.60;93.10
27619;DHT22;15039;50.830;4.730;2023-06-26T14:52:23;24.40;92.40
27619;DHT22;15039;50.830;4.730;2023-06-26T14:54:48;24.40;92.90
27619;DHT22;15039;50.830;4.730;2023-06-26T14:57:14;24.60;92.90
27619;DHT22;15039;50.830;4.730;2023-06-26T14:59:39;24.70;93.00
27619;DHT22;15039;50.830;4.730;2023-06-26T15:02:05;24.70;93.50
27619;DHT22;15039;50.830;4.730;2023-06-26T15:04:32;24.60;93.00
27619;DHT22;15039;50.830;4.730;2023-06-26T15:06:57;24.50;93.90
27619;DHT22;15039;50.830;4.730;2023-06-26T15:09:24;24.70;93.40
27619;DHT22;15039;50.830;4.730;2023-06-26T15:11:50;24.90;93.40
27619;DHT22;15039;50.830;4.730;2023-06-26T15:14:15;24.90;92.90
27619;DHT22;15039;50.830;4.730;2023-06-26T15:16:41;25.00;93.70
27619;DHT22;15039;50.830;4.730;2023-06-26T15:19:07;24.80;93.10
27619;DHT22;15039;50.830;4.730;2023-06-26T15:21:34;24.60;93.80
27619;DHT22;15039;50.830;4.730;2023-06-26T15:23:59;24.60;93.50
27619;DHT22;15039;50.830;4.730;2023-06-26T15:26:26;24.40;93.10
27619;DHT22;15039;50.830;4.730;2023-06-26T15:28:52;24.10;93.30
27619;DHT22;15039;50.830;4.730;2023-06-26T15:31:19;23.80;93.50
27619;DHT22;15039;50.830;4.730;2023-06-26T15:33:45;23.60;93.60
27619;DHT22;15039;50.830;4.730;2023-06-26T15:36:11;23.40;94.10
27619;DHT22;15039;50.830;4.730;2023-06-26T15:38:36;23.50;94.70
27619;DHT22;15039;50.830;4.730;2023-06-26T15:41:03;23.70;94.00
27619;DHT22;15039;50.830;4.730;2023-06-26T15:43:28;23.80;94.10